sensor_id;sensor_type;location;lat;lon;timestamp;P1;durP1;ratioP1;P2;durP2;ratioP2
11121;SDS011;5615;49.304;10.576;2022-07-29T00:01:20;8.55;;;4.07;;
11121;SDS011;5615;49.304;10.576;2022-07-29T00:03:47;7.75;;;3.90;;
11121;SDS011;5615;49.304;10.576;2022-07-29T00:06:14;4.22;;;3.67;;
11121;SDS011;5615;49.304;10.576;2022-07-29T00:08:41;8.82;;;3.88;;
11121;SDS011;5615;49.304;10.576;2022-07-29T00:11:08;4.85;;;3.50;;
11121;SDS011;5615;49.304;10.576;2022-07-29T00:13:36;5.25;;;3.85;;
11121;SDS011;5615;49.304;10.576;2022-07-29T00:16:02;6.72;;;4.00;;
11121;SDS011;5615;49.304;10.576;2022-07-29T00:18:30;5.80;;;4.10;;
11121;SDS011;5615;49.304;10.576;2022-07-29T00:20:56;6.05;;;3.85;;
11121;SDS011;5615;49.304;10.576;2022-07-29T00:23:23;5.82;;;3.92;;
11121;SDS011;5615;49.304;10.576;2022-07-29T00:25:50;5.32;;;4.53;;
11121;SDS011;5615;49.304;10.576;2022-07-29T00:28:16;5.45;;;3.70;;
11121;SDS011;5615;49.304;10.576;2022-07-29T00:30:45;5.25;;;4.00;;
11121;SDS011;5615;49.304;10.576;2022-07-29T00:33:11;6.03;;;3.97;;
11121;SDS011;5615;49.304;10.576;2022-07-29T00:35:38;5.40;;;3.95;;
11121;SDS011;5615;49.304;10.576;2022-07-29T00:38:10;4.13;;;3.47;;
11121;SDS011;5615;49.304;10.576;2022-07-29T00:40:37;5.13;;;4.18;;
11121;SDS011;5615;49.304;10.576;2022-07-29T00:43:04;6.20;;;3.85;;
11121;SDS011;5615;49.304;10.576;2022-07-29T00:45:31;5.47;;;3.95;;
11121;SDS011;5615;49.304;10.576;2022-07-29T00:47:59;4.32;;;3.85;;
11121;SDS011;5615;49.304;10.576;2022-07-29T00:50:26;5.47;;;4.10;;
11121;SDS011;5615;49.304;10.576;2022-07-29T00:52:52;7.43;;;4.30;;
11121;SDS011;5615;49.304;10.576;2022-07-29T00:55:20;5.95;;;3.90;;
11121;SDS011;5615;49.304;10.576;2022-07-29T00:57:47;6.85;;;3.95;;
11121;SDS011;5615;49.304;10.576;2022-07-29T01:00:15;4.63;;;3.92;;
11121;SDS011;5615;49.304;10.576;2022-07-29T01:02:43;5.90;;;3.83;;
11121;SDS011;5615;49.304;10.576;2022-07-29T01:05:11;4.78;;;3.97;;
11121;SDS011;5615;49.304;10.576;2022-07-29T01:07:38;8.50;;;4.35;;
11121;SDS011;5615;49.304;10.576;2022-07-29T01:10:06;7.35;;;5.35;;
11121;SDS011;5615;49.304;10.576;2022-07-29T01:12:35;13.13;;;6.10;;
11121;SDS011;5615;49.304;10.576;2022-07-29T01:15:04;10.85;;;6.50;;
11121;SDS011;5615;49.304;10.576;2022-07-29T01:17:36;6.82;;;5.18;;
11121;SDS011;5615;49.304;10.576;2022-07-29T01:20:07;6.88;;;4.10;;
11121;SDS011;5615;49.304;10.576;2022-07-29T01:22:53;6.28;;;4.10;;
11121;SDS011;5615;49.304;10.576;2022-07-29T01:31:31;5.43;;;4.18;;
11121;SDS011;5615;49.304;10.576;2022-07-29T01:34:03;7.95;;;4.25;;
11121;SDS011;5615;49.304;10.576;2022-07-29T01:36:33;5.10;;;4.47;;
11121;SDS011;5615;49.304;10.576;2022-07-29T01:39:04;7.25;;;4.13;;
11121;SDS011;5615;49.304;10.576;2022-07-29T01:41:34;9.20;;;4.57;;
11121;SDS011;5615;49.304;10.576;2022-07-29T01:44:10;8.43;;;4.30;;
11121;SDS011;5615;49.304;10.576;2022-07-29T01:46:41;5.07;;;4.00;;
11121;SDS011;5615;49.304;10.576;2022-07-29T01:49:14;4.25;;;3.85;;
11121;SDS011;5615;49.304;10.576;2022-07-29T01:51:44;6.13;;;4.40;;
11121;SDS011;5615;49.304;10.576;2022-07-29T01:54:16;5.85;;;4.00;;
11121;SDS011;5615;49.304;10.576;2022-07-29T01:56:47;7.38;;;4.65;;
11121;SDS011;5615;49.304;10.576;2022-07-29T01:59:18;4.38;;;4.03;;
11121;SDS011;5615;49.304;10.576;2022-07-29T02:01:46;5.70;;;4.30;;
11121;SDS011;5615;49.304;10.576;2022-07-29T02:04:14;7.13;;;4.47;;
11121;SDS011;5615;49.304;10.576;2022-07-29T02:06:43;4.88;;;3.78;;
11121;SDS011;5615;49.304;10.576;2022-07-29T02:09:12;5.80;;;4.40;;
11121;SDS011;5615;49.304;10.576;2022-07-29T02:11:40;5.78;;;4.38;;
11121;SDS011;5615;49.304;10.576;2022-07-29T02:14:11;6.30;;;4.10;;
11121;SDS011;5615;49.304;10.576;2022-07-29T02:16:41;6.95;;;4.60;;
11121;SDS011;5615;49.304;10.576;2022-07-29T02:19:10;6.55;;;4.38;;
11121;SDS011;5615;49.304;10.576;2022-07-29T02:21:38;6.90;;;4.43;;
11121;SDS011;5615;49.304;10.576;2022-07-29T02:24:07;4.65;;;4.20;;
11121;SDS011;5615;49.304;10.576;2022-07-29T02:26:37;5.47;;;4.57;;
11121;SDS011;5615;49.304;10.576;2022-07-29T02:29:07;7.43;;;4.57;;
11121;SDS011;5615;49.304;10.576;2022-07-29T02:31:35;8.32;;;5.50;;
11121;SDS011;5615;49.304;10.576;2022-07-29T02:34:06;6.50;;;4.63;;
11121;SDS011;5615;49.304;10.576;2022-07-29T02:36:35;6.30;;;4.40;;
11121;SDS011;5615;49.304;10.576;2022-07-29T02:39:03;7.75;;;4.78;;
11121;SDS011;5615;49.304;10.576;2022-07-29T02:41:33;5.57;;;4.38;;
11121;SDS011;5615;49.304;10.576;2022-07-29T02:44:06;6.53;;;4.65;;
11121;SDS011;5615;49.304;10.576;2022-07-29T02:46:36;5.72;;;4.85;;
11121;SDS011;5615;49.304;10.576;2022-07-29T02:49:13;4.78;;;4.28;;
11121;SDS011;5615;49.304;10.576;2022-07-29T02:51:45;6.28;;;4.88;;
11121;SDS011;5615;49.304;10.576;2022-07-29T02:54:19;6.07;;;4.60;;
11121;SDS011;5615;49.304;10.576;2022-07-29T02:56:49;9.35;;;4.70;;
11121;SDS011;5615;49.304;10.576;2022-07-29T02:59:21;7.00;;;4.82;;
11121;SDS011;5615;49.304;10.576;2022-07-29T03:01:51;5.85;;;4.72;;
11121;SDS011;5615;49.304;10.576;2022-07-29T03:04:21;6.53;;;4.80;;
11121;SDS011;5615;49.304;10.576;2022-07-29T03:06:50;4.57;;;4.18;;
11121;SDS011;5615;49.304;10.576;2022-07-29T03:09:18;8.07;;;4.75;;
11121;SDS011;5615;49.304;10.576;2022-07-29T03:11:46;6.57;;;4.82;;
11121;SDS011;5615;49.304;10.576;2022-07-29T03:14:13;7.25;;;4.68;;
11121;SDS011;5615;49.304;10.576;2022-07-29T03:16:41;5.03;;;4.50;;
11121;SDS011;5615;49.304;10.576;2022-07-29T03:19:08;7.72;;;5.00;;
11121;SDS011;5615;49.304;10.576;2022-07-29T03:21:36;5.80;;;4.70;;
11121;SDS011;5615;49.304;10.576;2022-07-29T03:24:02;9.38;;;5.00;;
11121;SDS011;5615;49.304;10.576;2022-07-29T03:26:29;8.20;;;5.80;;
11121;SDS011;5615;49.304;10.576;2022-07-29T03:28:56;7.50;;;5.20;;
11121;SDS011;5615;49.304;10.576;2022-07-29T03:31:23;5.63;;;4.97;;
11121;SDS011;5615;49.304;10.576;2022-07-29T03:33:49;7.93;;;5.45;;
11121;SDS011;5615;49.304;10.576;2022-07-29T03:36:17;6.15;;;5.25;;
11121;SDS011;5615;49.304;10.576;2022-07-29T03:38:45;5.93;;;4.80;;
11121;SDS011;5615;49.304;10.576;2022-07-29T03:41:13;6.05;;;4.85;;
11121;SDS011;5615;49.304;10.576;2022-07-29T03:43:42;8.98;;;5.03;;
11121;SDS011;5615;49.304;10.576;2022-07-29T03:46:10;7.20;;;5.40;;
11121;SDS011;5615;49.304;10.576;2022-07-29T03:48:39;6.28;;;5.18;;
11121;SDS011;5615;49.304;10.576;2022-07-29T03:51:11;6.40;;;5.00;;
11121;SDS011;5615;49.304;10.576;2022-07-29T03:53:39;6.75;;;5.40;;
11121;SDS011;5615;49.304;10.576;2022-07-29T03:56:07;5.80;;;5.05;;
11121;SDS011;5615;49.304;10.576;2022-07-29T03:58:35;6.03;;;5.43;;
11121;SDS011;5615;49.304;10.576;2022-07-29T04:01:03;6.90;;;5.28;;
11121;SDS011;5615;49.304;10.576;2022-07-29T04:03:30;9.63;;;5.55;;
11121;SDS011;5615;49.304;10.576;2022-07-29T04:05:57;6.30;;;5.50;;
11121;SDS011;5615;49.304;10.576;2022-07-29T04:08:25;8.85;;;5.53;;
11121;SDS011;5615;49.304;10.576;2022-07-29T04:10:52;8.97;;;5.87;;
11121;SDS011;5615;49.304;10.576;2022-07-29T04:13:20;7.70;;;5.55;;
11121;SDS011;5615;49.304;10.576;2022-07-29T04:15:47;7.20;;;5.90;;
11121;SDS011;5615;49.304;10.576;2022-07-29T04:18:13;7.50;;;5.33;;
11121;SDS011;5615;49.304;10.576;2022-07-29T04:20:40;7.53;;;5.57;;
11121;SDS011;5615;49.304;10.576;2022-07-29T04:23:06;7.25;;;5.63;;
11121;SDS011;5615;49.304;10.576;2022-07-29T04:25:36;6.63;;;5.65;;
11121;SDS011;5615;49.304;10.576;2022-07-29T04:28:03;7.20;;;5.55;;
11121;SDS011;5615;49.304;10.576;2022-07-29T04:30:32;7.38;;;5.50;;
11121;SDS011;5615;49.304;10.576;2022-07-29T04:33:00;12.45;;;6.03;;
11121;SDS011;5615;49.304;10.576;2022-07-29T04:35:28;9.93;;;5.22;;
11121;SDS011;5615;49.304;10.576;2022-07-29T04:37:54;9.33;;;6.67;;
11121;SDS011;5615;49.304;10.576;2022-07-29T04:40:21;12.65;;;7.28;;
11121;SDS011;5615;49.304;10.576;2022-07-29T04:42:48;9.48;;;6.85;;
11121;SDS011;5615;49.304;10.576;2022-07-29T04:45:15;13.18;;;6.90;;
11121;SDS011;5615;49.304;10.576;2022-07-29T04:47:43;13.75;;;6.60;;
11121;SDS011;5615;49.304;10.576;2022-07-29T04:50:09;8.52;;;6.53;;
11121;SDS011;5615;49.304;10.576;2022-07-29T04:52:36;11.10;;;6.05;;
11121;SDS011;5615;49.304;10.576;2022-07-29T04:55:04;10.88;;;6.60;;
11121;SDS011;5615;49.304;10.576;2022-07-29T04:57:31;8.55;;;7.15;;
11121;SDS011;5615;49.304;10.576;2022-07-29T04:59:58;8.82;;;6.97;;
11121;SDS011;5615;49.304;10.576;2022-07-29T05:02:25;11.38;;;7.03;;
11121;SDS011;5615;49.304;10.576;2022-07-29T05:04:53;8.80;;;6.85;;
11121;SDS011;5615;49.304;10.576;2022-07-29T05:07:20;11.38;;;7.38;;
11121;SDS011;5615;49.304;10.576;2022-07-29T05:09:47;10.82;;;7.90;;
11121;SDS011;5615;49.304;10.576;2022-07-29T05:12:14;9.63;;;7.68;;
11121;SDS011;5615;49.304;10.576;2022-07-29T05:14:41;10.30;;;6.40;;
11121;SDS011;5615;49.304;10.576;2022-07-29T05:17:07;9.60;;;7.18;;
11121;SDS011;5615;49.304;10.576;2022-07-29T05:19:34;11.50;;;7.22;;
11121;SDS011;5615;49.304;10.576;2022-07-29T05:22:02;11.05;;;7.88;;
11121;SDS011;5615;49.304;10.576;2022-07-29T05:24:28;14.38;;;7.97;;
11121;SDS011;5615;49.304;10.576;2022-07-29T05:26:55;19.95;;;10.38;;
11121;SDS011;5615;49.304;10.576;2022-07-29T05:29:22;14.98;;;9.57;;
11121;SDS011;5615;49.304;10.576;2022-07-29T05:31:48;10.65;;;6.97;;
11121;SDS011;5615;49.304;10.576;2022-07-29T05:34:16;8.32;;;6.60;;
11121;SDS011;5615;49.304;10.576;2022-07-29T05:36:43;7.85;;;6.15;;
11121;SDS011;5615;49.304;10.576;2022-07-29T05:39:12;7.07;;;6.47;;
11121;SDS011;5615;49.304;10.576;2022-07-29T05:41:38;12.68;;;6.20;;
11121;SDS011;5615;49.304;10.576;2022-07-29T05:44:05;8.10;;;6.10;;
11121;SDS011;5615;49.304;10.576;2022-07-29T05:46:32;8.07;;;6.43;;
11121;SDS011;5615;49.304;10.576;2022-07-29T05:48:58;7.20;;;6.50;;
11121;SDS011;5615;49.304;10.576;2022-07-29T05:51:25;6.80;;;6.05;;
11121;SDS011;5615;49.304;10.576;2022-07-29T05:53:52;11.25;;;6.30;;
11121;SDS011;5615;49.304;10.576;2022-07-29T05:56:20;7.70;;;5.82;;
11121;SDS011;5615;49.304;10.576;2022-07-29T05:58:46;7.78;;;6.13;;
11121;SDS011;5615;49.304;10.576;2022-07-29T06:01:13;6.72;;;5.90;;
11121;SDS011;5615;49.304;10.576;2022-07-29T06:03:41;9.73;;;6.07;;
11121;SDS011;5615;49.304;10.576;2022-07-29T06:06:08;8.90;;;5.68;;
11121;SDS011;5615;49.304;10.576;2022-07-29T06:08:34;9.65;;;5.97;;
11121;SDS011;5615;49.304;10.576;2022-07-29T06:11:02;8.30;;;6.40;;
11121;SDS011;5615;49.304;10.576;2022-07-29T06:13:30;7.32;;;5.75;;
11121;SDS011;5615;49.304;10.576;2022-07-29T06:15:57;9.98;;;5.53;;
11121;SDS011;5615;49.304;10.576;2022-07-29T06:18:24;9.82;;;5.80;;
11121;SDS011;5615;49.304;10.576;2022-07-29T06:20:50;7.85;;;5.25;;
11121;SDS011;5615;49.304;10.576;2022-07-29T06:23:17;7.90;;;5.72;;
11121;SDS011;5615;49.304;10.576;2022-07-29T06:25:44;8.50;;;5.07;;
11121;SDS011;5615;49.304;10.576;2022-07-29T06:28:11;8.45;;;5.72;;
11121;SDS011;5615;49.304;10.576;2022-07-29T06:30:39;10.90;;;5.55;;
11121;SDS011;5615;49.304;10.576;2022-07-29T06:33:06;6.65;;;5.03;;
11121;SDS011;5615;49.304;10.576;2022-07-29T06:35:33;10.60;;;5.20;;
11121;SDS011;5615;49.304;10.576;2022-07-29T06:38:01;14.10;;;6.20;;
11121;SDS011;5615;49.304;10.576;2022-07-29T06:40:27;11.40;;;5.55;;
11121;SDS011;5615;49.304;10.576;2022-07-29T06:43:26;11.35;;;5.70;;
11121;SDS011;5615;49.304;10.576;2022-07-29T06:45:57;7.90;;;5.10;;
11121;SDS011;5615;49.304;10.576;2022-07-29T06:48:25;9.57;;;5.70;;
11121;SDS011;5615;49.304;10.576;2022-07-29T06:50:51;8.00;;;5.80;;
11121;SDS011;5615;49.304;10.576;2022-07-29T06:53:18;7.75;;;5.10;;
11121;SDS011;5615;49.304;10.576;2022-07-29T06:55:45;7.47;;;5.32;;
11121;SDS011;5615;49.304;10.576;2022-07-29T06:58:12;6.88;;;5.25;;
11121;SDS011;5615;49.304;10.576;2022-07-29T07:00:40;6.88;;;4.72;;
11121;SDS011;5615;49.304;10.576;2022-07-29T07:03:08;8.23;;;4.95;;
11121;SDS011;5615;49.304;10.576;2022-07-29T07:05:35;7.90;;;4.55;;
11121;SDS011;5615;49.304;10.576;2022-07-29T07:08:02;7.25;;;4.30;;
11121;SDS011;5615;49.304;10.576;2022-07-29T07:10:28;5.85;;;3.55;;
11121;SDS011;5615;49.304;10.576;2022-07-29T07:12:55;3.72;;;3.42;;
11121;SDS011;5615;49.304;10.576;2022-07-29T07:15:22;7.57;;;4.10;;
11121;SDS011;5615;49.304;10.576;2022-07-29T07:17:49;5.43;;;3.90;;
11121;SDS011;5615;49.304;10.576;2022-07-29T07:20:17;4.53;;;3.60;;
11121;SDS011;5615;49.304;10.576;2022-07-29T07:22:44;4.10;;;3.70;;
11121;SDS011;5615;49.304;10.576;2022-07-29T07:25:12;4.50;;;3.97;;
11121;SDS011;5615;49.304;10.576;2022-07-29T07:27:39;5.32;;;3.75;;
11121;SDS011;5615;49.304;10.576;2022-07-29T07:30:06;3.97;;;3.58;;
11121;SDS011;5615;49.304;10.576;2022-07-29T07:32:33;5.72;;;4.00;;
11121;SDS011;5615;49.304;10.576;2022-07-29T07:35:01;4.40;;;3.88;;
11121;SDS011;5615;49.304;10.576;2022-07-29T07:37:29;6.50;;;3.90;;
11121;SDS011;5615;49.304;10.576;2022-07-29T07:39:56;4.30;;;3.55;;
11121;SDS011;5615;49.304;10.576;2022-07-29T07:42:23;5.43;;;3.67;;
11121;SDS011;5615;49.304;10.576;2022-07-29T07:44:50;4.95;;;3.55;;
11121;SDS011;5615;49.304;10.576;2022-07-29T07:47:17;4.85;;;3.58;;
11121;SDS011;5615;49.304;10.576;2022-07-29T07:49:45;3.45;;;2.92;;
11121;SDS011;5615;49.304;10.576;2022-07-29T07:52:12;4.22;;;2.92;;
11121;SDS011;5615;49.304;10.576;2022-07-29T07:54:40;3.97;;;2.88;;
11121;SDS011;5615;49.304;10.576;2022-07-29T07:57:08;3.35;;;3.05;;
11121;SDS011;5615;49.304;10.576;2022-07-29T07:59:34;3.90;;;2.80;;
11121;SDS011;5615;49.304;10.576;2022-07-29T08:02:01;8.32;;;3.45;;
11121;SDS011;5615;49.304;10.576;2022-07-29T08:04:28;6.32;;;3.42;;
11121;SDS011;5615;49.304;10.576;2022-07-29T08:06:54;4.13;;;2.78;;
11121;SDS011;5615;49.304;10.576;2022-07-29T08:09:22;5.10;;;3.42;;
11121;SDS011;5615;49.304;10.576;2022-07-29T08:11:51;5.35;;;3.47;;
11121;SDS011;5615;49.304;10.576;2022-07-29T08:14:18;3.42;;;3.05;;
11121;SDS011;5615;49.304;10.576;2022-07-29T08:16:45;3.55;;;3.22;;
11121;SDS011;5615;49.304;10.576;2022-07-29T08:19:12;3.17;;;2.88;;
11121;SDS011;5615;49.304;10.576;2022-07-29T08:21:38;3.38;;;3.00;;
11121;SDS011;5615;49.304;10.576;2022-07-29T08:24:05;5.50;;;3.10;;
11121;SDS011;5615;49.304;10.576;2022-07-29T08:26:51;3.80;;;2.80;;
11121;SDS011;5615;49.304;10.576;2022-07-29T08:29:18;2.92;;;2.60;;
11121;SDS011;5615;49.304;10.576;2022-07-29T08:31:44;3.92;;;2.83;;
11121;SDS011;5615;49.304;10.576;2022-07-29T08:34:11;3.58;;;3.00;;
11121;SDS011;5615;49.304;10.576;2022-07-29T08:36:38;3.17;;;2.83;;
11121;SDS011;5615;49.304;10.576;2022-07-29T08:39:05;7.03;;;3.08;;
11121;SDS011;5615;49.304;10.576;2022-07-29T08:41:31;2.80;;;2.60;;
11121;SDS011;5615;49.304;10.576;2022-07-29T08:43:59;2.88;;;2.67;;
11121;SDS011;5615;49.304;10.576;2022-07-29T08:46:26;3.08;;;2.88;;
11121;SDS011;5615;49.304;10.576;2022-07-29T08:48:52;5.55;;;2.70;;
11121;SDS011;5615;49.304;10.576;2022-07-29T08:51:21;3.03;;;2.67;;
11121;SDS011;5615;49.304;10.576;2022-07-29T08:53:49;5.90;;;2.60;;
11121;SDS011;5615;49.304;10.576;2022-07-29T08:56:17;4.05;;;2.80;;
11121;SDS011;5615;49.304;10.576;2022-07-29T08:58:45;4.07;;;2.50;;
11121;SDS011;5615;49.304;10.576;2022-07-29T09:01:16;3.92;;;2.50;;
11121;SDS011;5615;49.304;10.576;2022-07-29T09:03:43;3.75;;;2.60;;
11121;SDS011;5615;49.304;10.576;2022-07-29T09:06:12;3.90;;;2.60;;
11121;SDS011;5615;49.304;10.576;2022-07-29T09:08:40;5.03;;;2.60;;
11121;SDS011;5615;49.304;10.576;2022-07-29T09:11:07;2.50;;;2.30;;
11121;SDS011;5615;49.304;10.576;2022-07-29T09:13:34;2.63;;;2.42;;
11121;SDS011;5615;49.304;10.576;2022-07-29T09:16:01;3.47;;;2.90;;
11121;SDS011;5615;49.304;10.576;2022-07-29T09:18:36;4.03;;;2.38;;
11121;SDS011;5615;49.304;10.576;2022-07-29T09:21:04;2.67;;;2.47;;
11121;SDS011;5615;49.304;10.576;2022-07-29T09:24:03;3.40;;;3.10;;
11121;SDS011;5615;49.304;10.576;2022-07-29T09:26:32;3.63;;;2.70;;
11121;SDS011;5615;49.304;10.576;2022-07-29T09:29:01;3.72;;;2.95;;
11121;SDS011;5615;49.304;10.576;2022-07-29T09:31:34;3.17;;;2.88;;
11121;SDS011;5615;49.304;10.576;2022-07-29T09:34:03;4.13;;;2.70;;
11121;SDS011;5615;49.304;10.576;2022-07-29T09:36:30;3.00;;;2.65;;
11121;SDS011;5615;49.304;10.576;2022-07-29T09:39:04;6.70;;;2.80;;
11121;SDS011;5615;49.304;10.576;2022-07-29T09:41:30;3.75;;;2.95;;
11121;SDS011;5615;49.304;10.576;2022-07-29T09:44:10;3.03;;;2.72;;
11121;SDS011;5615;49.304;10.576;2022-07-29T09:46:37;3.22;;;2.15;;
11121;SDS011;5615;49.304;10.576;2022-07-29T09:49:08;3.55;;;2.13;;
11121;SDS011;5615;49.304;10.576;2022-07-29T09:51:36;4.18;;;2.53;;
11121;SDS011;5615;49.304;10.576;2022-07-29T09:54:04;2.72;;;2.53;;
11121;SDS011;5615;49.304;10.576;2022-07-29T09:56:48;2.47;;;2.28;;
11121;SDS011;5615;49.304;10.576;2022-07-29T09:59:14;2.40;;;2.20;;
11121;SDS011;5615;49.304;10.576;2022-07-29T10:01:41;3.58;;;1.90;;
11121;SDS011;5615;49.304;10.576;2022-07-29T10:04:10;2.53;;;1.98;;
11121;SDS011;5615;49.304;10.576;2022-07-29T10:06:40;2.50;;;1.90;;
11121;SDS011;5615;49.304;10.576;2022-07-29T10:09:22;3.35;;;2.10;;
11121;SDS011;5615;49.304;10.576;2022-07-29T10:12:01;3.42;;;2.00;;
11121;SDS011;5615;49.304;10.576;2022-07-29T10:14:29;2.35;;;2.15;;
11121;SDS011;5615;49.304;10.576;2022-07-29T10:16:57;2.17;;;1.88;;
11121;SDS011;5615;49.304;10.576;2022-07-29T10:19:27;2.30;;;2.10;;
11121;SDS011;5615;49.304;10.576;2022-07-29T10:21:54;2.28;;;2.08;;
11121;SDS011;5615;49.304;10.576;2022-07-29T10:24:21;1.92;;;1.73;;
11121;SDS011;5615;49.304;10.576;2022-07-29T10:26:49;3.08;;;2.03;;
11121;SDS011;5615;49.304;10.576;2022-07-29T10:29:16;3.33;;;2.10;;
11121;SDS011;5615;49.304;10.576;2022-07-29T10:31:44;3.13;;;2.20;;
11121;SDS011;5615;49.304;10.576;2022-07-29T10:34:20;3.58;;;2.20;;
11121;SDS011;5615;49.304;10.576;2022-07-29T10:36:59;2.33;;;2.08;;
11121;SDS011;5615;49.304;10.576;2022-07-29T10:39:39;3.50;;;2.10;;
11121;SDS011;5615;49.304;10.576;2022-07-29T10:42:15;2.47;;;2.17;;
11121;SDS011;5615;49.304;10.576;2022-07-29T10:44:45;4.47;;;2.13;;
11121;SDS011;5615;49.304;10.576;2022-07-29T10:47:20;2.40;;;2.20;;
11121;SDS011;5615;49.304;10.576;2022-07-29T10:49:54;2.40;;;2.20;;
11121;SDS011;5615;49.304;10.576;2022-07-29T10:52:24;3.50;;;1.98;;
11121;SDS011;5615;49.304;10.576;2022-07-29T10:54:52;2.83;;;2.00;;
11121;SDS011;5615;49.304;10.576;2022-07-29T10:57:24;2.53;;;2.33;;
11121;SDS011;5615;49.304;10.576;2022-07-29T11:02:53;2.58;;;2.38;;
11121;SDS011;5615;49.304;10.576;2022-07-29T11:05:22;3.67;;;3.38;;
11121;SDS011;5615;49.304;10.576;2022-07-29T11:10:50;3.30;;;2.25;;
11121;SDS011;5615;49.304;10.576;2022-07-29T11:16:11;3.08;;;2.15;;
11121;SDS011;5615;49.304;10.576;2022-07-29T11:21:40;2.20;;;2.00;;
11121;SDS011;5615;49.304;10.576;2022-07-29T11:24:12;2.40;;;2.20;;
11121;SDS011;5615;49.304;10.576;2022-07-29T11:26:40;2.50;;;1.83;;
11121;SDS011;5615;49.304;10.576;2022-07-29T11:29:14;3.28;;;2.50;;
11121;SDS011;5615;49.304;10.576;2022-07-29T11:31:45;2.50;;;2.30;;
11121;SDS011;5615;49.304;10.576;2022-07-29T11:34:17;2.10;;;1.92;;
11121;SDS011;5615;49.304;10.576;2022-07-29T11:40:17;2.80;;;2.60;;
11121;SDS011;5615;49.304;10.576;2022-07-29T11:42:47;2.25;;;2.10;;
11121;SDS011;5615;49.304;10.576;2022-07-29T11:45:16;2.50;;;2.30;;
11121;SDS011;5615;49.304;10.576;2022-07-29T11:47:52;3.53;;;2.65;;
11121;SDS011;5615;49.304;10.576;2022-07-29T11:50:30;2.88;;;2.50;;
11121;SDS011;5615;49.304;10.576;2022-07-29T11:52:59;2.65;;;2.45;;
11121;SDS011;5615;49.304;10.576;2022-07-29T11:55:28;2.90;;;2.70;;
11121;SDS011;5615;49.304;10.576;2022-07-29T11:57:57;2.88;;;2.55;;
11121;SDS011;5615;49.304;10.576;2022-07-29T12:00:26;3.85;;;2.80;;
11121;SDS011;5615;49.304;10.576;2022-07-29T12:02:55;3.38;;;2.67;;
11121;SDS011;5615;49.304;10.576;2022-07-29T12:05:30;5.07;;;2.50;;
11121;SDS011;5615;49.304;10.576;2022-07-29T12:08:03;2.83;;;2.63;;
11121;SDS011;5615;49.304;10.576;2022-07-29T12:10:36;4.50;;;2.80;;
11121;SDS011;5615;49.304;10.576;2022-07-29T12:13:03;3.75;;;3.08;;
11121;SDS011;5615;49.304;10.576;2022-07-29T12:15:30;3.85;;;2.80;;
11121;SDS011;5615;49.304;10.576;2022-07-29T12:17:57;5.75;;;3.00;;
11121;SDS011;5615;49.304;10.576;2022-07-29T12:20:24;4.80;;;2.95;;
11121;SDS011;5615;49.304;10.576;2022-07-29T12:22:52;2.63;;;2.42;;
11121;SDS011;5615;49.304;10.576;2022-07-29T12:25:20;3.35;;;3.05;;
11121;SDS011;5615;49.304;10.576;2022-07-29T12:27:58;3.17;;;2.50;;
11121;SDS011;5615;49.304;10.576;2022-07-29T12:30:34;2.67;;;2.47;;
11121;SDS011;5615;49.304;10.576;2022-07-29T12:33:09;3.45;;;2.80;;
11121;SDS011;5615;49.304;10.576;2022-07-29T12:35:37;3.92;;;2.90;;
11121;SDS011;5615;49.304;10.576;2022-07-29T12:38:04;3.20;;;2.90;;
11121;SDS011;5615;49.304;10.576;2022-07-29T12:40:31;3.33;;;2.80;;
11121;SDS011;5615;49.304;10.576;2022-07-29T12:43:06;3.67;;;3.08;;
11121;SDS011;5615;49.304;10.576;2022-07-29T12:45:35;3.55;;;2.97;;
11121;SDS011;5615;49.304;10.576;2022-07-29T12:48:02;2.70;;;2.50;;
11121;SDS011;5615;49.304;10.576;2022-07-29T12:50:30;4.78;;;2.60;;
11121;SDS011;5615;49.304;10.576;2022-07-29T12:53:07;5.60;;;2.53;;
11121;SDS011;5615;49.304;10.576;2022-07-29T12:55:42;3.03;;;2.72;;
11121;SDS011;5615;49.304;10.576;2022-07-29T12:58:11;3.08;;;2.72;;
11121;SDS011;5615;49.304;10.576;2022-07-29T13:00:38;3.88;;;2.80;;
11121;SDS011;5615;49.304;10.576;2022-07-29T13:03:04;6.28;;;2.83;;
11121;SDS011;5615;49.304;10.576;2022-07-29T13:05:41;3.03;;;2.65;;
11121;SDS011;5615;49.304;10.576;2022-07-29T13:08:09;5.95;;;2.80;;
11121;SDS011;5615;49.304;10.576;2022-07-29T13:10:37;7.55;;;2.97;;
11121;SDS011;5615;49.304;10.576;2022-07-29T13:13:04;3.90;;;2.90;;
11121;SDS011;5615;49.304;10.576;2022-07-29T13:15:34;3.95;;;2.65;;
11121;SDS011;5615;49.304;10.576;2022-07-29T13:18:01;3.85;;;2.75;;
11121;SDS011;5615;49.304;10.576;2022-07-29T13:20:29;2.75;;;2.53;;
11121;SDS011;5615;49.304;10.576;2022-07-29T13:22:56;2.97;;;2.45;;
11121;SDS011;5615;49.304;10.576;2022-07-29T13:25:24;2.70;;;2.50;;
11121;SDS011;5615;49.304;10.576;2022-07-29T13:27:51;2.80;;;2.50;;
11121;SDS011;5615;49.304;10.576;2022-07-29T13:30:19;4.28;;;2.75;;
11121;SDS011;5615;49.304;10.576;2022-07-29T13:32:48;7.20;;;3.72;;
11121;SDS011;5615;49.304;10.576;2022-07-29T13:35:15;5.95;;;3.60;;
11121;SDS011;5615;49.304;10.576;2022-07-29T13:37:43;5.00;;;3.78;;
11121;SDS011;5615;49.304;10.576;2022-07-29T13:40:10;4.50;;;3.83;;
11121;SDS011;5615;49.304;10.576;2022-07-29T13:42:38;4.05;;;3.65;;
11121;SDS011;5615;49.304;10.576;2022-07-29T13:45:06;6.32;;;3.95;;
11121;SDS011;5615;49.304;10.576;2022-07-29T13:47:34;8.23;;;3.80;;
11121;SDS011;5615;49.304;10.576;2022-07-29T13:50:02;6.00;;;3.90;;
11121;SDS011;5615;49.304;10.576;2022-07-29T13:52:30;6.18;;;4.05;;
11121;SDS011;5615;49.304;10.576;2022-07-29T13:54:57;3.90;;;3.50;;
11121;SDS011;5615;49.304;10.576;2022-07-29T13:57:24;5.80;;;3.10;;
11121;SDS011;5615;49.304;10.576;2022-07-29T13:59:50;4.57;;;3.45;;
11121;SDS011;5615;49.304;10.576;2022-07-29T14:02:17;4.95;;;2.75;;
11121;SDS011;5615;49.304;10.576;2022-07-29T14:04:44;3.80;;;3.00;;
11121;SDS011;5615;49.304;10.576;2022-07-29T14:07:12;3.20;;;2.75;;
11121;SDS011;5615;49.304;10.576;2022-07-29T14:09:39;4.60;;;2.90;;
11121;SDS011;5615;49.304;10.576;2022-07-29T14:12:06;4.28;;;2.90;;
11121;SDS011;5615;49.304;10.576;2022-07-29T14:14:33;5.50;;;2.90;;
11121;SDS011;5615;49.304;10.576;2022-07-29T14:17:01;6.18;;;3.05;;
11121;SDS011;5615;49.304;10.576;2022-07-29T14:19:30;3.25;;;2.92;;
11121;SDS011;5615;49.304;10.576;2022-07-29T14:22:00;3.25;;;2.95;;
11121;SDS011;5615;49.304;10.576;2022-07-29T14:24:30;5.30;;;3.28;;
11121;SDS011;5615;49.304;10.576;2022-07-29T14:26:57;3.10;;;2.78;;
11121;SDS011;5615;49.304;10.576;2022-07-29T14:29:24;5.32;;;2.72;;
11121;SDS011;5615;49.304;10.576;2022-07-29T14:31:50;3.97;;;2.45;;
11121;SDS011;5615;49.304;10.576;2022-07-29T14:34:17;4.82;;;2.80;;
11121;SDS011;5615;49.304;10.576;2022-07-29T14:36:44;4.43;;;2.30;;
11121;SDS011;5615;49.304;10.576;2022-07-29T14:39:11;3.60;;;2.38;;
11121;SDS011;5615;49.304;10.576;2022-07-29T14:41:39;3.13;;;2.80;;
11121;SDS011;5615;49.304;10.576;2022-07-29T14:44:05;3.92;;;2.83;;
11121;SDS011;5615;49.304;10.576;2022-07-29T14:46:32;3.38;;;2.85;;
11121;SDS011;5615;49.304;10.576;2022-07-29T14:48:59;3.30;;;3.00;;
11121;SDS011;5615;49.304;10.576;2022-07-29T14:51:26;3.35;;;2.55;;
11121;SDS011;5615;49.304;10.576;2022-07-29T14:53:52;4.95;;;2.95;;
11121;SDS011;5615;49.304;10.576;2022-07-29T14:56:21;2.80;;;2.60;;
11121;SDS011;5615;49.304;10.576;2022-07-29T14:58:49;3.55;;;2.58;;
11121;SDS011;5615;49.304;10.576;2022-07-29T15:01:15;2.88;;;1.90;;
11121;SDS011;5615;49.304;10.576;2022-07-29T15:03:42;2.63;;;1.83;;
11121;SDS011;5615;49.304;10.576;2022-07-29T15:06:09;3.28;;;2.15;;
11121;SDS011;5615;49.304;10.576;2022-07-29T15:08:35;2.85;;;2.28;;
11121;SDS011;5615;49.304;10.576;2022-07-29T15:11:02;3.97;;;2.85;;
11121;SDS011;5615;49.304;10.576;2022-07-29T15:13:29;3.13;;;2.83;;
11121;SDS011;5615;49.304;10.576;2022-07-29T15:15:56;2.30;;;2.10;;